Time;durP1;ratioP1;P1;durP2;ratioP2;P2;SDS_P1;SDS_P2;PMS_P1;PMS_P2;Temp;Humidity;BMP_temperature;BMP_pressure;BME280_temperature;BME280_humidity;BME280_pressure;Samples;Min_cycle;Max_cycle;Signal;HPM_P1;HPM_P2
2021/03/25 00:01:17;;;;;;;7.47;2.13;;;8.70;99.90;;;;;;5015067;28;20912;-67
2021/03/25 00:03:48;;;;;;;11.30;2.60;;;8.70;99.90;;;;;;5005069;28;20196;-65
2021/03/25 00:06:16;;;;;;;11.97;2.37;;;8.70;99.90;;;;;;5006587;28;20351;-68
2021/03/25 00:08:42;;;;;;;11.30;2.30;;;8.70;99.90;;;;;;5006309;28;20188;-67
2021/03/25 00:11:09;;;;;;;12.03;2.50;;;8.70;99.90;;;;;;5007716;28;20192;-68
2021/03/25 00:13:36;;;;;;;12.17;2.67;;;8.70;99.90;;;;;;5005525;28;20240;-66
2021/03/25 00:16:04;;;;;;;12.73;2.60;;;8.70;99.90;;;;;;4996731;28;20224;-66
2021/03/25 00:18:32;;;;;;;9.93;2.77;;;8.70;99.90;;;;;;4994657;28;20178;-65
2021/03/25 00:20:59;;;;;;;6.23;2.40;;;8.70;99.90;;;;;;5000145;28;20185;-67
2021/03/25 00:23:26;;;;;;;17.97;2.50;;;8.70;99.90;;;;;;5003485;28;20196;-68
2021/03/25 00:25:52;;;;;;;12.67;2.73;;;8.70;99.90;;;;;;5005327;28;20195;-68
2021/03/25 00:28:19;;;;;;;8.27;2.33;;;8.70;99.90;;;;;;5007183;28;20296;-67
2021/03/25 00:30:46;;;;;;;10.13;2.93;;;8.70;99.90;;;;;;5000096;28;20954;-66
2021/03/25 00:33:17;;;;;;;9.43;2.87;;;8.60;99.90;;;;;;5003074;28;20259;-68
2021/03/25 00:35:44;;;;;;;6.20;2.07;;;8.60;99.90;;;;;;5006519;28;20205;-65
2021/03/25 00:38:13;;;;;;;13.57;2.60;;;8.50;99.90;;;;;;5003990;28;20189;-67
2021/03/25 00:40:40;;;;;;;8.73;1.90;;;8.50;99.90;;;;;;4999713;28;20194;-67
2021/03/25 00:43:09;;;;;;;5.93;1.93;;;8.50;99.90;;;;;;5005767;28;20184;-66
2021/03/25 00:45:47;;;;;;;5.97;2.00;;;8.50;99.90;;;;;;5002380;28;20290;-68
2021/03/25 00:48:17;;;;;;;14.50;2.33;;;8.50;99.90;;;;;;5004994;28;20192;-68
2021/03/25 00:50:49;;;;;;;11.70;2.43;;;8.50;99.90;;;;;;5001124;28;20231;-66
2021/03/25 00:53:25;;;;;;;12.77;2.53;;;8.50;99.90;;;;;;4999817;28;20192;-67
2021/03/25 00:55:52;;;;;;;6.13;1.80;;;8.50;99.90;;;;;;4983123;28;20239;-68
2021/03/25 00:58:19;;;;;;;7.00;1.93;;;8.40;99.90;;;;;;4997505;28;20193;-67
2021/03/25 01:00:48;;;;;;;6.27;2.17;;;8.50;99.90;;;;;;5005070;28;20181;-67
2021/03/25 01:03:18;;;;;;;10.33;2.20;;;8.50;99.90;;;;;;5001991;28;20189;-66
2021/03/25 01:05:45;;;;;;;10.73;1.87;;;8.50;99.90;;;;;;5004865;28;20189;-66
2021/03/25 01:08:12;;;;;;;7.13;2.03;;;8.50;99.90;;;;;;5005660;28;20195;-67
2021/03/25 01:10:40;;;;;;;15.07;2.30;;;8.40;99.90;;;;;;4999725;28;20692;-66
2021/03/25 01:13:23;;;;;;;6.90;1.67;;;8.40;99.90;;;;;;5006627;28;20211;-68
2021/03/25 01:15:49;;;;;;;9.03;2.17;;;8.30;99.90;;;;;;5000368;28;20303;-66
2021/03/25 01:18:17;;;;;;;9.57;2.00;;;8.40;99.90;;;;;;4995538;28;20188;-66
2021/03/25 01:20:44;;;;;;;7.63;2.13;;;8.40;99.90;;;;;;5006782;28;20185;-65
2021/03/25 01:23:12;;;;;;;4.60;1.77;;;8.40;99.90;;;;;;5005248;28;20181;-65
2021/03/25 01:25:39;;;;;;;9.57;2.17;;;8.50;99.90;;;;;;4993341;28;20185;-69
2021/03/25 01:28:10;;;;;;;7.63;2.20;;;8.50;99.90;;;;;;5005153;28;20177;-66
2021/03/25 01:30:38;;;;;;;4.40;1.80;;;8.40;99.90;;;;;;5002025;28;20197;-66
2021/03/25 01:33:06;;;;;;;7.77;1.60;;;8.50;99.90;;;;;;5004985;28;20208;-67
2021/03/25 01:35:36;;;;;;;4.33;1.80;;;8.50;99.90;;;;;;5008079;28;20706;-68
2021/03/25 01:38:04;;;;;;;7.37;1.80;;;8.50;99.90;;;;;;4986247;28;20226;-67
2021/03/25 01:40:34;;;;;;;9.27;2.10;;;8.50;99.90;;;;;;5001950;28;20184;-64
2021/03/25 01:43:25;;;;;;;6.30;1.90;;;8.50;99.90;;;;;;4988131;28;20177;-66
2021/03/25 01:46:14;;;;;;;7.40;1.83;;;8.40;99.90;;;;;;4999362;28;20249;-65
2021/03/25 01:48:45;;;;;;;8.80;1.60;;;8.40;99.90;;;;;;4996437;28;20272;-65
2021/03/25 01:51:32;;;;;;;5.90;1.93;;;8.40;99.90;;;;;;4999893;28;20281;-66
2021/03/25 01:54:47;;;;;;;7.10;1.70;;;8.40;99.90;;;;;;5000606;28;20210;-65
2021/03/25 01:57:38;;;;;;;6.03;1.43;;;8.40;99.90;;;;;;5002952;28;20228;-67
2021/03/25 02:00:49;;;;;;;7.40;1.70;;;8.40;99.90;;;;;;5005594;28;20181;-65
2021/03/25 02:03:39;;;;;;;4.03;1.60;;;8.40;99.90;;;;;;5002858;28;20188;-66
2021/03/25 02:06:28;;;;;;;7.53;2.00;;;8.30;99.90;;;;;;5004386;28;20180;-66
2021/03/25 02:09:30;;;;;;;4.23;1.37;;;8.30;99.90;;;;;;4995374;28;20196;-65
2021/03/25 02:12:07;;;;;;;5.97;1.57;;;8.30;99.90;;;;;;4997949;28;20197;-66
2021/03/25 02:15:19;;;;;;;5.43;1.30;;;8.30;99.90;;;;;;4999340;28;20193;-64
2021/03/25 02:18:13;;;;;;;4.93;1.40;;;8.30;99.90;;;;;;4999477;28;20252;-65
2021/03/25 02:21:21;;;;;;;5.57;1.47;;;8.30;99.90;;;;;;4992448;28;20185;-67
2021/03/25 02:24:27;;;;;;;4.30;1.30;;;8.10;99.90;;;;;;5001774;28;20192;-67
2021/03/25 02:27:07;;;;;;;7.43;1.57;;;8.10;99.90;;;;;;4998922;28;20184;-67
2021/03/25 02:29:52;;;;;;;4.70;1.70;;;8.10;99.90;;;;;;5002596;28;20207;-65
2021/03/25 02:32:51;;;;;;;7.37;1.57;;;8.10;99.90;;;;;;5001166;28;20281;-66
2021/03/25 02:35:28;;;;;;;5.50;1.70;;;8.20;99.90;;;;;;5002861;28;20299;-68
2021/03/25 02:38:16;;;;;;;9.73;1.80;;;8.00;99.90;;;;;;5003040;28;20192;-66
2021/03/25 02:41:33;;;;;;;6.80;1.13;;;8.00;99.90;;;;;;4986091;28;20192;-66
2021/03/25 02:44:07;;;;;;;10.87;1.60;;;7.80;99.90;;;;;;5020913;28;20192;-65
2021/03/25 02:46:53;;;;;;;8.83;1.60;;;7.80;99.90;;;;;;5000996;28;20681;-66
2021/03/25 02:49:26;;;;;;;5.53;1.63;;;7.90;99.90;;;;;;5001420;28;20280;-67
2021/03/25 02:52:31;;;;;;;5.80;1.57;;;7.90;99.90;;;;;;5007995;28;20185;-65
2021/03/25 02:55:02;;;;;;;4.53;1.63;;;7.80;99.90;;;;;;5002885;28;20196;-67
2021/03/25 02:57:37;;;;;;;9.67;1.70;;;7.70;99.90;;;;;;5022654;28;20208;-66
2021/03/25 03:00:17;;;;;;;6.40;1.60;;;7.70;99.90;;;;;;5008489;28;20208;-67
2021/03/25 03:02:54;;;;;;;3.70;1.40;;;7.80;99.90;;;;;;5006531;28;20184;-65
2021/03/25 03:05:26;;;;;;;7.87;1.47;;;7.80;99.90;;;;;;5006098;28;20180;-66
2021/03/25 03:08:21;;;;;;;4.77;1.20;;;7.90;99.90;;;;;;5006187;28;20177;-67
2021/03/25 03:11:16;;;;;;;3.40;1.40;;;7.70;99.90;;;;;;5006423;28;20185;-66
2021/03/25 03:13:50;;;;;;;6.50;1.60;;;7.70;99.90;;;;;;5007599;28;20185;-66
2021/03/25 03:16:28;;;;;;;4.43;1.60;;;7.70;99.90;;;;;;5000149;28;20308;-65
2021/03/25 03:19:08;;;;;;;5.87;1.50;;;7.90;99.90;;;;;;5017039;28;20604;-66
2021/03/25 03:22:05;;;;;;;7.63;1.43;;;7.90;99.90;;;;;;5006267;28;20204;-66
2021/03/25 03:24:33;;;;;;;4.57;1.40;;;7.70;99.90;;;;;;5018206;28;20181;-68
2021/03/25 03:27:17;;;;;;;5.93;1.30;;;7.60;99.90;;;;;;4992689;28;20223;-65
2021/03/25 03:29:47;;;;;;;4.37;1.43;;;7.70;99.90;;;;;;5009030;28;20185;-65
2021/03/25 03:32:41;;;;;;;5.57;1.80;;;7.80;99.90;;;;;;5003865;28;20181;-68
2021/03/25 03:35:37;;;;;;;4.70;1.50;;;7.90;99.90;;;;;;5004675;28;20280;-65
2021/03/25 03:38:26;;;;;;;9.47;1.30;;;7.70;99.90;;;;;;4988351;28;20231;-65
2021/03/25 03:40:56;;;;;;;7.47;1.50;;;7.80;99.90;;;;;;5002833;28;20284;-65
2021/03/25 03:43:23;;;;;;;7.87;1.30;;;7.80;99.90;;;;;;5001645;28;20243;-66
2021/03/25 03:46:23;;;;;;;2.43;1.30;;;7.80;99.90;;;;;;5005517;28;20189;-66
2021/03/25 03:48:58;;;;;;;5.67;1.83;;;7.70;99.90;;;;;;4998593;28;20204;-63
2021/03/25 03:52:03;;;;;;;5.17;1.70;;;7.40;99.90;;;;;;5018323;28;20188;-64
2021/03/25 03:54:31;;;;;;;3.37;1.20;;;7.40;99.90;;;;;;4991036;28;20212;-66
2021/03/25 03:58:04;;;;;;;5.57;1.50;;;7.40;99.90;;;;;;4990634;28;20240;-66
2021/03/25 04:00:35;;;;;;;8.10;1.63;;;7.30;99.90;;;;;;5002344;28;20239;-64
2021/03/25 04:03:30;;;;;;;4.87;1.33;;;7.30;99.90;;;;;;5000262;28;20200;-66
2021/03/25 04:06:23;;;;;;;5.00;1.70;;;7.40;99.90;;;;;;5002144;28;20281;-67
2021/03/25 04:09:20;;;;;;;4.90;1.50;;;7.30;99.90;;;;;;5005936;28;20268;-67
2021/03/25 04:12:03;;;;;;;5.10;1.70;;;7.40;99.90;;;;;;5005144;28;20646;-66
2021/03/25 04:14:52;;;;;;;5.57;1.70;;;7.30;99.90;;;;;;5004705;28;20274;-67
2021/03/25 04:17:32;;;;;;;3.67;1.60;;;7.40;99.90;;;;;;5001589;28;20209;-66
2021/03/25 04:20:08;;;;;;;3.80;1.30;;;7.50;99.90;;;;;;5018183;28;20215;-66
2021/03/25 04:22:46;;;;;;;4.90;1.50;;;7.60;99.90;;;;;;5005587;28;20235;-65
2021/03/25 04:25:38;;;;;;;6.67;1.57;;;7.60;99.90;;;;;;5002418;28;20189;-66
2021/03/25 04:28:33;;;;;;;5.73;1.70;;;7.70;99.90;;;;;;4980509;28;20636;-66
2021/03/25 04:31:00;;;;;;;4.47;1.73;;;7.70;99.90;;;;;;5001187;28;20197;-67
2021/03/25 04:33:30;;;;;;;5.23;1.43;;;7.80;99.90;;;;;;5004377;28;20670;-65
2021/03/25 04:35:59;;;;;;;3.77;1.50;;;7.90;99.90;;;;;;5004317;28;20955;-67
2021/03/25 04:38:36;;;;;;;5.43;1.60;;;8.00;99.90;;;;;;4999790;28;20265;-66
2021/03/25 04:41:03;;;;;;;6.53;2.03;;;8.10;99.90;;;;;;5005887;28;20260;-69
2021/03/25 04:43:30;;;;;;;12.67;1.67;;;8.30;99.90;;;;;;5005654;28;20197;-64
2021/03/25 04:46:17;;;;;;;4.50;1.40;;;8.30;99.90;;;;;;5003931;28;20214;-66
2021/03/25 04:48:45;;;;;;;5.17;1.47;;;8.30;99.90;;;;;;5005609;28;20267;-65
2021/03/25 04:51:20;;;;;;;8.13;1.57;;;8.30;99.90;;;;;;5006335;28;20193;-65
2021/03/25 04:53:49;;;;;;;8.40;2.00;;;8.30;99.90;;;;;;5004148;28;20184;-66
2021/03/25 04:56:22;;;;;;;4.27;1.50;;;8.50;99.90;;;;;;5003108;28;20308;-68
2021/03/25 04:58:59;;;;;;;4.80;1.40;;;8.60;99.90;;;;;;5006630;28;20200;-65
2021/03/25 05:01:30;;;;;;;6.60;1.60;;;8.60;99.90;;;;;;5003605;28;20181;-66
2021/03/25 05:04:04;;;;;;;5.70;1.73;;;8.70;99.90;;;;;;4999931;28;20765;-67
2021/03/25 05:06:59;;;;;;;11.10;1.70;;;8.70;99.90;;;;;;5003188;28;20212;-64
2021/03/25 05:09:29;;;;;;;5.20;1.57;;;8.70;99.90;;;;;;5005152;28;20189;-66
2021/03/25 05:11:56;;;;;;;5.37;1.60;;;8.70;99.90;;;;;;5005719;28;20259;-65
2021/03/25 05:14:28;;;;;;;4.17;1.40;;;8.60;99.90;;;;;;5004537;28;20714;-67
2021/03/25 05:17:12;;;;;;;7.50;1.60;;;8.70;99.90;;;;;;5002979;28;20297;-65
2021/03/25 05:19:58;;;;;;;5.13;1.37;;;8.70;99.90;;;;;;5003649;28;20748;-64
2021/03/25 05:22:57;;;;;;;8.20;1.73;;;8.80;99.90;;;;;;5004677;28;20311;-66
2021/03/25 05:25:43;;;;;;;6.60;1.67;;;8.80;99.90;;;;;;5002828;28;20185;-67
2021/03/25 05:28:39;;;;;;;6.60;2.10;;;8.90;99.90;;;;;;4994014;28;20207;-66
2021/03/25 05:31:12;;;;;;;7.50;1.70;;;9.00;99.90;;;;;;5000160;28;20254;-67
2021/03/25 05:33:40;;;;;;;9.27;1.77;;;9.10;99.90;;;;;;5005482;28;20220;-66
2021/03/25 05:36:12;;;;;;;4.30;1.83;;;9.20;99.90;;;;;;5004937;28;20692;-66
2021/03/25 05:38:39;;;;;;;4.50;1.70;;;9.20;99.90;;;;;;4984582;28;20182;-66
2021/03/25 05:41:45;;;;;;;4.80;1.70;;;9.30;99.90;;;;;;5002041;28;20177;-66
2021/03/25 05:44:36;;;;;;;5.57;1.93;;;9.30;99.90;;;;;;5004933;28;20202;-67
2021/03/25 05:47:34;;;;;;;2.00;1.20;;;9.40;99.90;;;;;;5004733;28;20278;-67
2021/03/25 05:50:06;;;;;;;7.43;1.93;;;9.60;99.90;;;;;;5018455;28;20204;-66
2021/03/25 05:52:56;;;;;;;4.07;1.63;;;9.70;99.90;;;;;;5001339;28;20755;-68
2021/03/25 05:56:05;;;;;;;4.20;1.50;;;9.80;99.90;;;;;;5003564;28;20709;-68
2021/03/25 05:58:48;;;;;;;3.53;1.67;;;9.80;99.90;;;;;;4991716;28;20189;-66
2021/03/25 06:01:26;;;;;;;9.17;1.70;;;9.80;99.90;;;;;;4998008;28;20272;-65
2021/03/25 06:04:29;;;;;;;9.33;2.07;;;9.80;99.90;;;;;;4984569;28;20681;-67
2021/03/25 06:06:55;;;;;;;7.67;1.77;;;9.70;99.90;;;;;;4984901;28;20236;-69
2021/03/25 06:10:15;;;;;;;8.83;2.00;;;9.60;99.90;;;;;;5002246;28;20199;-66
2021/03/25 06:13:19;;;;;;;8.10;2.10;;;9.60;99.90;;;;;;4997403;28;20236;-65
2021/03/25 06:16:34;;;;;;;9.57;1.87;;;9.70;99.90;;;;;;5006436;28;20208;-65
2021/03/25 06:19:16;;;;;;;6.53;1.70;;;9.80;99.90;;;;;;5008153;28;20585;-66
2021/03/25 06:22:21;;;;;;;5.40;1.83;;;9.90;99.90;;;;;;5003658;28;20184;-65
2021/03/25 06:25:08;;;;;;;4.30;1.70;;;10.10;99.90;;;;;;5007847;28;20263;-65
2021/03/25 06:27:56;;;;;;;6.37;1.70;;;10.20;99.90;;;;;;5005854;28;20188;-65
2021/03/25 06:30:30;;;;;;;7.67;1.73;;;10.30;99.90;;;;;;5003536;28;20223;-65
2021/03/25 06:33:17;;;;;;;8.00;2.43;;;10.20;99.90;;;;;;5005600;28;20419;-69
2021/03/25 06:35:53;;;;;;;6.50;1.57;;;10.20;99.90;;;;;;5007465;28;20205;-65
2021/03/25 06:38:59;;;;;;;5.97;2.10;;;10.10;99.90;;;;;;5011266;28;20213;-66
2021/03/25 06:41:52;;;;;;;3.17;1.50;;;10.00;99.90;;;;;;4975644;28;20235;-66
2021/03/25 06:45:02;;;;;;;6.17;1.63;;;10.10;99.90;;;;;;5000068;28;20182;-65
2021/03/25 06:47:58;;;;;;;8.03;1.73;;;10.30;99.90;;;;;;4994857;28;20194;-66
2021/03/25 06:50:50;;;;;;;6.97;1.50;;;10.60;99.90;;;;;;5005738;28;20177;-67
2021/03/25 06:53:34;;;;;;;5.13;1.63;;;10.50;99.90;;;;;;4985275;28;20217;-65
2021/03/25 06:56:10;;;;;;;3.20;1.83;;;10.30;99.90;;;;;;4993320;28;20280;-68
2021/03/25 06:58:50;;;;;;;4.33;1.60;;;10.20;99.90;;;;;;5007398;28;20199;-68
2021/03/25 07:01:37;;;;;;;7.20;1.63;;;10.10;99.90;;;;;;5005901;28;20521;-65
2021/03/25 07:04:22;;;;;;;7.67;1.53;;;10.20;99.90;;;;;;5006805;28;20177;-68
2021/03/25 07:06:51;;;;;;;5.83;1.90;;;10.30;99.90;;;;;;5000159;28;20188;-67
2021/03/25 07:09:28;;;;;;;6.13;1.97;;;10.30;99.90;;;;;;5022713;28;20195;-66
2021/03/25 07:11:58;;;;;;;5.37;1.73;;;10.40;99.90;;;;;;5007075;28;20215;-68
2021/03/25 07:14:39;;;;;;;7.50;1.67;;;10.60;99.90;;;;;;5003413;28;20181;-67
2021/03/25 07:17:09;;;;;;;7.67;1.80;;;10.60;99.90;;;;;;5018657;28;20215;-66
2021/03/25 07:19:39;;;;;;;9.63;1.90;;;10.70;99.90;;;;;;5009874;28;20576;-66
2021/03/25 07:22:28;;;;;;;6.90;1.77;;;10.80;99.90;;;;;;5003271;28;20181;-66
2021/03/25 07:25:19;;;;;;;7.17;1.80;;;10.70;99.90;;;;;;5003014;28;20787;-65
2021/03/25 07:27:47;;;;;;;3.80;1.67;;;10.50;99.90;;;;;;4986214;28;20191;-64
2021/03/25 07:30:16;;;;;;;5.43;1.90;;;10.40;99.90;;;;;;5002369;28;20189;-67
2021/03/25 07:33:08;;;;;;;5.70;1.37;;;10.40;99.90;;;;;;5002248;28;20192;-64
2021/03/25 07:35:40;;;;;;;6.23;1.80;;;10.30;99.90;;;;;;5001533;28;20245;-64
2021/03/25 07:38:30;;;;;;;4.83;2.00;;;10.30;99.90;;;;;;5003393;28;20207;-67
2021/03/25 07:41:23;;;;;;;6.50;1.70;;;10.30;99.90;;;;;;5011298;28;20204;-65
2021/03/25 07:44:03;;;;;;;4.30;1.50;;;10.50;99.90;;;;;;4998849;28;20193;-65
2021/03/25 07:46:41;;;;;;;5.33;1.53;;;10.50;99.90;;;;;;5004241;28;20356;-66
2021/03/25 07:49:11;;;;;;;9.27;1.90;;;10.50;99.90;;;;;;5003641;28;20196;-65
2021/03/25 07:51:52;;;;;;;10.23;1.60;;;10.60;99.90;;;;;;5001839;28;21131;-66
2021/03/25 07:54:39;;;;;;;3.73;1.60;;;10.90;99.90;;;;;;5005795;28;20324;-66
2021/03/25 07:57:15;;;;;;;8.80;1.70;;;11.30;99.90;;;;;;4992827;28;20216;-68
2021/03/25 07:59:58;;;;;;;6.13;1.70;;;11.40;99.90;;;;;;5006175;28;20614;-67
2021/03/25 08:02:34;;;;;;;5.30;1.77;;;11.50;99.90;;;;;;5002451;28;20193;-68
2021/03/25 08:05:19;;;;;;;5.03;1.47;;;11.70;99.90;;;;;;5002343;28;20187;-68
2021/03/25 08:07:49;;;;;;;2.33;1.43;;;11.40;99.90;;;;;;4981139;28;20197;-68
2021/03/25 08:10:45;;;;;;;11.93;2.07;;;11.20;99.90;;;;;;5004696;28;20612;-66
2021/03/25 08:13:17;;;;;;;12.13;1.90;;;11.10;99.90;;;;;;5003914;28;20586;-68
2021/03/25 08:16:14;;;;;;;2.97;1.50;;;10.90;99.90;;;;;;5003758;28;20768;-67
2021/03/25 08:19:07;;;;;;;6.77;1.47;;;10.90;99.90;;;;;;4988087;28;20224;-66
2021/03/25 08:22:01;;;;;;;2.13;1.00;;;11.00;99.90;;;;;;5000059;28;20260;-68
2021/03/25 08:24:36;;;;;;;5.20;1.60;;;11.30;99.90;;;;;;5002697;28;20197;-68
2021/03/25 08:27:49;;;;;;;6.33;1.60;;;11.10;99.90;;;;;;5002771;28;20180;-67
2021/03/25 08:30:55;;;;;;;7.67;2.00;;;11.00;99.90;;;;;;5002196;28;20189;-69
2021/03/25 08:34:01;;;;;;;4.20;1.80;;;10.90;99.90;;;;;;5005550;28;20224;-69
2021/03/25 08:36:56;;;;;;;6.37;1.50;;;11.30;99.90;;;;;;4985388;28;20216;-67
2021/03/25 08:39:53;;;;;;;8.57;1.80;;;11.40;99.90;;;;;;5001110;28;20181;-66
2021/03/25 08:42:46;;;;;;;3.93;1.40;;;11.50;99.90;;;;;;5002091;28;20185;-67
2021/03/25 08:45:25;;;;;;;11.90;2.07;;;11.50;99.90;;;;;;4997913;28;20272;-70
2021/03/25 08:48:32;;;;;;;4.77;1.80;;;11.50;99.90;;;;;;5014246;28;20203;-66
2021/03/25 08:51:31;;;;;;;5.37;1.60;;;11.70;99.90;;;;;;4970836;28;20200;-66
2021/03/25 08:54:20;;;;;;;7.03;1.70;;;11.90;99.90;;;;;;5003867;28;20228;-66
2021/03/25 08:57:11;;;;;;;7.00;1.70;;;12.10;99.90;;;;;;5000434;28;20243;-65
2021/03/25 08:59:52;;;;;;;3.80;1.27;;;12.10;99.90;;;;;;4986656;28;20196;-65
2021/03/25 09:02:42;;;;;;;4.73;1.40;;;12.00;99.90;;;;;;4986012;28;20185;-67
2021/03/25 09:06:07;;;;;;;3.20;1.40;;;12.10;99.90;;;;;;4996497;28;20191;-66
2021/03/25 09:08:41;;;;;;;6.07;1.27;;;12.00;99.90;;;;;;4981455;28;20202;-65
2021/03/25 09:11:17;;;;;;;3.83;1.13;;;11.90;99.90;;;;;;4980681;28;20189;-66
2021/03/25 09:13:58;;;;;;;5.50;1.30;;;11.70;99.90;;;;;;4990780;28;20654;-68
2021/03/25 09:16:36;;;;;;;6.33;1.73;;;11.60;99.90;;;;;;4983205;28;20685;-66
2021/03/25 09:19:23;;;;;;;3.73;1.40;;;11.70;99.90;;;;;;5006334;28;20193;-67
2021/03/25 09:21:58;;;;;;;2.80;1.17;;;12.00;99.90;;;;;;5002159;28;20939;-65
2021/03/25 09:24:24;;;;;;;2.73;1.30;;;12.30;99.90;;;;;;5000318;28;20176;-66
2021/03/25 09:26:56;;;;;;;2.77;1.30;;;12.20;99.90;;;;;;5002682;28;20188;-65
2021/03/25 09:29:34;;;;;;;4.47;1.60;;;12.00;99.90;;;;;;5017151;28;20185;-65
2021/03/25 09:32:01;;;;;;;4.37;1.70;;;12.00;99.90;;;;;;4998487;28;20188;-66
2021/03/25 09:34:51;;;;;;;4.93;1.63;;;11.90;99.90;;;;;;5003516;28;20190;-66
2021/03/25 09:37:25;;;;;;;5.70;1.47;;;11.90;99.90;;;;;;4999527;28;20295;-65
2021/03/25 09:40:33;;;;;;;4.00;1.60;;;11.90;99.90;;;;;;4998626;28;20705;-65
2021/03/25 09:43:30;;;;;;;4.77;1.40;;;11.80;99.90;;;;;;4999425;28;20271;-65
2021/03/25 09:46:17;;;;;;;7.47;1.80;;;11.80;99.90;;;;;;5002342;28;20295;-66
2021/03/25 09:48:44;;;;;;;8.20;1.83;;;11.80;99.90;;;;;;5002945;28;20192;-68
2021/03/25 09:51:29;;;;;;;4.23;1.70;;;11.70;99.90;;;;;;4999955;28;20215;-66
2021/03/25 09:53:59;;;;;;;10.80;1.97;;;12.10;99.90;;;;;;5001372;28;20204;-64
2021/03/25 09:56:27;;;;;;;6.17;1.53;;;12.40;99.90;;;;;;5000263;28;20220;-67
2021/03/25 09:58:54;;;;;;;2.97;1.30;;;12.50;99.90;;;;;;5019806;28;20673;-65
2021/03/25 10:01:58;;;;;;;3.07;1.20;;;12.70;99.90;;;;;;4997899;28;20189;-66
2021/03/25 10:04:29;;;;;;;6.13;1.40;;;12.90;99.90;;;;;;5003552;28;20223;-65
2021/03/25 10:07:14;;;;;;;2.43;1.13;;;12.90;99.90;;;;;;5015724;28;20193;-65
2021/03/25 10:09:50;;;;;;;6.70;1.13;;;12.90;99.90;;;;;;5001932;28;20215;-66
2021/03/25 10:12:48;;;;;;;2.60;1.40;;;12.50;99.90;;;;;;4998049;28;20203;-66
2021/03/25 10:15:44;;;;;;;5.63;1.50;;;12.30;99.90;;;;;;5015282;28;20270;-68
2021/03/25 10:18:32;;;;;;;2.80;1.47;;;12.30;99.90;;;;;;4975445;28;20201;-68
2021/03/25 10:21:08;;;;;;;7.43;1.60;;;12.30;99.90;;;;;;5018676;28;20184;-66
2021/03/25 10:24:00;;;;;;;2.53;1.50;;;12.20;99.90;;;;;;5000209;28;20194;-67
2021/03/25 10:26:41;;;;;;;4.43;1.30;;;12.00;99.90;;;;;;4995231;28;20645;-67
2021/03/25 10:29:10;;;;;;;3.73;1.37;;;11.90;99.90;;;;;;4999575;28;20201;-66
2021/03/25 10:31:47;;;;;;;4.70;2.00;;;11.90;99.90;;;;;;4996805;28;20202;-68
2021/03/25 10:34:33;;;;;;;6.67;2.10;;;11.90;99.90;;;;;;5000716;28;20211;-66
2021/03/25 10:37:36;;;;;;;4.20;1.20;;;11.90;99.90;;;;;;5003932;28;20229;-67
2021/03/25 10:40:34;;;;;;;8.83;1.43;;;11.80;99.90;;;;;;5001668;28;20199;-68
2021/03/25 10:43:17;;;;;;;2.77;0.93;;;11.90;99.90;;;;;;5000680;28;20672;-67
2021/03/25 10:45:57;;;;;;;3.33;1.07;;;12.20;99.90;;;;;;5001193;28;20185;-66
2021/03/25 10:48:41;;;;;;;5.10;1.70;;;12.40;99.90;;;;;;5007700;28;20191;-66
2021/03/25 10:51:18;;;;;;;3.27;1.17;;;12.80;99.90;;;;;;4998533;28;20195;-69
2021/03/25 10:54:10;;;;;;;5.00;1.17;;;13.40;99.90;;;;;;4997602;28;20184;-67
2021/03/25 10:56:56;;;;;;;6.20;1.30;;;13.60;99.90;;;;;;5000759;28;20217;-67
2021/03/25 10:59:35;;;;;;;3.93;1.40;;;13.30;99.90;;;;;;4999757;28;20686;-67
2021/03/25 11:02:16;;;;;;;4.77;1.30;;;13.20;99.90;;;;;;5004212;28;20794;-64
2021/03/25 11:04:42;;;;;;;6.63;1.70;;;13.10;99.90;;;;;;5005359;28;20212;-65
2021/03/25 11:07:17;;;;;;;4.50;1.40;;;12.80;99.90;;;;;;5005562;28;20197;-67
2021/03/25 11:09:59;;;;;;;4.57;1.30;;;12.80;99.90;;;;;;4988284;28;20284;-66
2021/03/25 11:12:36;;;;;;;4.77;1.20;;;12.90;99.90;;;;;;5004270;28;20208;-65
2021/03/25 11:15:28;;;;;;;4.00;1.40;;;12.80;99.90;;;;;;5004317;28;20185;-65
2021/03/25 11:17:56;;;;;;;2.27;1.10;;;12.80;99.90;;;;;;5004597;28;20787;-67
2021/03/25 11:20:28;;;;;;;3.43;1.27;;;12.50;99.90;;;;;;5004453;28;20196;-68
2021/03/25 11:22:57;;;;;;;2.00;1.17;;;12.30;99.90;;;;;;5004288;28;20841;-70
2021/03/25 11:25:30;;;;;;;4.50;1.50;;;12.20;99.90;;;;;;5004466;28;20192;-67
2021/03/25 11:28:17;;;;;;;8.00;1.60;;;12.10;99.90;;;;;;5001623;28;20240;-65
2021/03/25 11:30:53;;;;;;;8.40;1.40;;;12.20;99.90;;;;;;5001039;28;20184;-66
2021/03/25 11:33:28;;;;;;;3.57;1.30;;;12.30;99.90;;;;;;5003368;28;20592;-63
2021/03/25 11:36:01;;;;;;;3.70;1.27;;;12.30;99.90;;;;;;5003371;28;20995;-64
2021/03/25 11:38:35;;;;;;;5.43;1.20;;;12.30;99.90;;;;;;5004003;28;20662;-66
2021/03/25 11:41:15;;;;;;;7.60;1.77;;;12.40;99.90;;;;;;5003252;28;20172;-67
2021/03/25 11:43:57;;;;;;;2.83;1.40;;;12.30;99.90;;;;;;5006251;28;20184;-64
2021/03/25 11:46:46;;;;;;;3.03;1.03;;;12.50;99.90;;;;;;5001258;28;20184;-66
2021/03/25 11:49:30;;;;;;;2.80;1.00;;;12.70;99.90;;;;;;5005743;28;20585;-67
2021/03/25 11:52:01;;;;;;;5.97;1.30;;;12.60;99.90;;;;;;5019977;28;20189;-67
2021/03/25 11:54:34;;;;;;;2.47;1.40;;;12.40;99.90;;;;;;5007369;28;20192;-68
2021/03/25 11:57:27;;;;;;;4.67;1.50;;;12.20;99.90;;;;;;5002368;28;20343;-66
2021/03/25 12:00:13;;;;;;;5.23;1.73;;;12.00;99.90;;;;;;5005164;28;20213;-67
2021/03/25 12:02:45;;;;;;;9.23;2.03;;;11.90;99.90;;;;;;5002653;28;20181;-65
2021/03/25 12:05:32;;;;;;;9.33;2.00;;;11.80;99.90;;;;;;5014471;28;20182;-64
2021/03/25 12:08:15;;;;;;;4.40;1.63;;;11.30;99.90;;;;;;5002777;28;20193;-66
2021/03/25 12:10:43;;;;;;;8.07;1.80;;;11.10;99.90;;;;;;5004049;28;20646;-65
2021/03/25 12:13:12;;;;;;;6.93;1.80;;;11.00;99.90;;;;;;5002732;28;20264;-66
2021/03/25 12:15:39;;;;;;;9.57;2.30;;;11.40;99.90;;;;;;5004051;28;20236;-67
2021/03/25 12:18:20;;;;;;;3.33;1.50;;;11.40;99.90;;;;;;5002280;28;20213;-69
2021/03/25 12:20:46;;;;;;;2.30;1.40;;;11.50;99.90;;;;;;4997595;28;20277;-66
2021/03/25 12:23:22;;;;;;;4.87;1.70;;;11.70;99.90;;;;;;5004220;28;20941;-67
2021/03/25 12:25:52;;;;;;;5.93;1.30;;;11.70;99.90;;;;;;5002614;28;20763;-69
2021/03/25 12:28:21;;;;;;;6.03;1.53;;;11.70;99.90;;;;;;5003057;28;20203;-64
2021/03/25 12:30:48;;;;;;;4.57;1.70;;;11.50;99.90;;;;;;5000197;28;20197;-69
2021/03/25 12:33:37;;;;;;;6.80;1.30;;;11.50;99.90;;;;;;5010532;28;20212;-66
2021/03/25 12:36:07;;;;;;;4.63;1.60;;;11.70;99.90;;;;;;4994899;28;20203;-69
2021/03/25 12:38:34;;;;;;;2.03;1.40;;;12.10;99.90;;;;;;5003556;28;20263;-67
2021/03/25 12:41:00;;;;;;;4.23;1.60;;;12.30;99.90;;;;;;5003724;28;20193;-66
2021/03/25 12:43:31;;;;;;;3.40;1.20;;;12.10;99.90;;;;;;5003185;28;20184;-68
2021/03/25 12:46:03;;;;;;;7.17;1.60;;;12.00;99.90;;;;;;4999507;28;20670;-68
2021/03/25 12:48:31;;;;;;;8.10;2.27;;;12.10;99.90;;;;;;5002357;28;20239;-67
2021/03/25 12:50:59;;;;;;;4.20;1.30;;;12.10;99.90;;;;;;5000058;28;20217;-67
2021/03/25 12:53:31;;;;;;;4.17;1.40;;;12.20;99.90;;;;;;4997988;28;20200;-65
2021/03/25 12:56:03;;;;;;;6.57;1.50;;;12.50;99.90;;;;;;5000684;28;20209;-65
2021/03/25 12:58:41;;;;;;;5.67;1.77;;;12.60;99.90;;;;;;5001237;28;20250;-66
2021/03/25 13:01:13;;;;;;;3.03;1.30;;;12.60;99.90;;;;;;4999773;28;20492;-70
2021/03/25 13:03:42;;;;;;;3.80;1.30;;;12.40;99.90;;;;;;5013103;28;21406;-69
2021/03/25 13:06:10;;;;;;;8.03;1.50;;;12.30;99.90;;;;;;5017056;28;20230;-69
2021/03/25 13:08:37;;;;;;;6.47;1.97;;;12.40;99.90;;;;;;5001218;28;20185;-69
2021/03/25 13:11:05;;;;;;;3.47;1.40;;;12.70;99.90;;;;;;4997084;28;20223;-67
2021/03/25 13:13:32;;;;;;;3.27;1.17;;;13.00;99.90;;;;;;4999686;28;20280;-65
2021/03/25 13:15:59;;;;;;;2.33;1.20;;;12.90;99.90;;;;;;5013351;28;20771;-66
2021/03/25 13:18:27;;;;;;;5.67;1.60;;;12.70;99.90;;;;;;4997817;28;20193;-67
2021/03/25 13:20:55;;;;;;;3.93;1.50;;;12.90;99.90;;;;;;4998215;28;20189;-66
2021/03/25 13:23:23;;;;;;;5.37;1.20;;;13.00;99.90;;;;;;5001000;28;20185;-69
2021/03/25 13:25:51;;;;;;;3.83;1.30;;;12.80;99.90;;;;;;5001244;28;20302;-67
2021/03/25 13:28:37;;;;;;;2.90;1.03;;;12.80;99.90;;;;;;4998430;28;20193;-67
2021/03/25 13:31:13;;;;;;;3.27;1.10;;;12.70;99.90;;;;;;4999345;28;20270;-66
2021/03/25 13:33:49;;;;;;;2.40;1.23;;;12.70;99.90;;;;;;5014431;28;20205;-67
2021/03/25 13:36:29;;;;;;;3.07;1.10;;;12.80;99.90;;;;;;5000493;28;20768;-65
2021/03/25 13:38:56;;;;;;;3.47;0.90;;;12.80;99.90;;;;;;5001736;28;20188;-64
2021/03/25 13:41:38;;;;;;;2.17;0.90;;;12.80;99.90;;;;;;5000952;28;20251;-66
2021/03/25 13:44:05;;;;;;;4.63;1.40;;;12.70;99.90;;;;;;5002745;28;20721;-66
2021/03/25 13:46:32;;;;;;;2.23;1.20;;;12.50;99.90;;;;;;5014287;28;20189;-68
2021/03/25 13:48:59;;;;;;;3.73;1.50;;;12.30;99.90;;;;;;4999273;28;20296;-66
2021/03/25 13:51:26;;;;;;;3.03;1.40;;;12.10;99.90;;;;;;5000683;28;20543;-66
2021/03/25 13:53:54;;;;;;;5.80;1.77;;;12.00;99.90;;;;;;5001726;28;20776;-66
2021/03/25 13:56:20;;;;;;;5.23;1.83;;;11.90;99.90;;;;;;4994928;28;21126;-64
2021/03/25 13:58:47;;;;;;;4.63;1.77;;;11.80;99.90;;;;;;4998787;28;20208;-64